Accueil
METAR-TAF:

METAR-TAF

Aéroports :

Seyresse

Dax, France

latitude: 43-41N, longitude: 001-04W, altitude: 32 m

Observation

Le bulletin a été fait il y a 1 heure et 1 minutes, à 00:00 UTC
Vent 7 kt de nord, variant entre nord-ouest et nord/nord-est
Température 8°C
Humidité 93%
Pression 1009 hPa
Visibilité: 7000 m

METAR: LFBY 180000Z AUTO 35007KT 320V020 7000 // OVC007/// ///TCU 08/07 Q1009

Heure: 02:01 (01:01 UTC)


TAF: absent

Observations et prévisions météorologiques de plus de 4000 aéroports (messages METAR et TAF).

Les stations disponibles sont représentées par des disques jaunes et rouges sur la carte.

Passer la souris dessus pour voir le nom de la station.

Cliquer dessus pour voir les observations et prévisions météorologiques.

Pour changer de carte: cliquez sur les boutons verts avec une croix noire pour zoomer, sur le bouton vert avec un tiret pour effectuer un zoom arrière, ou sur les flèches vertes pour les cartes adjacentes.


METAR-TAF: